Time;durP1;ratioP1;P1;durP2;ratioP2;P2;SDS_P1;SDS_P2;PMS_P1;PMS_P2;Temp;Humidity;BMP_temperature;BMP_pressure;BME280_temperature;BME280_humidity;BME280_pressure;Samples;Min_cycle;Max_cycle;Signal;HPM_P1;HPM_P2
2023/04/12 00:00:34;;;;;;;4.00;1.60;;;;;;;;;;5054750;28;20178;-77
2023/04/12 00:03:01;;;;;;;5.37;1.70;;;;;;;;;;5052337;28;20240;-77
2023/04/12 00:05:29;;;;;;;3.37;1.60;;;;;;;;;;5034528;28;20178;-77
2023/04/12 00:07:55;;;;;;;4.70;1.93;;;;;;;;;;5034550;28;20210;-76
2023/04/12 00:10:22;;;;;;;4.50;2.10;;;;;;;;;;5033399;28;20178;-77
2023/04/12 00:12:48;;;;;;;4.33;2.10;;;;;;;;;;5032748;28;20242;-77
2023/04/12 00:15:14;;;;;;;4.20;1.90;;;;;;;;;;5034145;28;20192;-77
2023/04/12 00:17:41;;;;;;;5.13;1.53;;;;;;;;;;5034309;28;20179;-77
2023/04/12 00:20:15;;;;;;;5.97;1.90;;;;;;;;;;5032821;28;20186;-77
2023/04/12 00:22:42;;;;;;;4.63;1.80;;;;;;;;;;5032374;28;20206;-77
2023/04/12 00:25:08;;;;;;;4.53;1.83;;;;;;;;;;5034164;28;20213;-76
2023/04/12 00:27:34;;;;;;;5.00;1.67;;;;;;;;;;5032665;28;20261;-77
2023/04/12 00:30:02;;;;;;;5.27;1.80;;;;;;;;;;5032653;28;20189;-76
2023/04/12 00:32:28;;;;;;;2.73;1.40;;;;;;;;;;5032216;28;20191;-77
2023/04/12 00:34:54;;;;;;;5.50;1.90;;;;;;;;;;5033711;28;20175;-77
2023/04/12 00:37:20;;;;;;;4.87;1.90;;;;;;;;;;5033828;28;20221;-76
2023/04/12 00:39:47;;;;;;;4.53;1.80;;;;;;;;;;5036475;28;20272;-77
2023/04/12 00:42:14;;;;;;;5.07;1.87;;;;;;;;;;5051837;28;20690;-77
2023/04/12 00:44:40;;;;;;;6.60;2.30;;;;;;;;;;5053439;28;20261;-77
2023/04/12 00:47:06;;;;;;;4.63;1.70;;;;;;;;;;5053420;28;20603;-76
2023/04/12 00:49:34;;;;;;;3.03;1.50;;;;;;;;;;5053378;28;20178;-77
2023/04/12 00:52:03;;;;;;;3.67;1.70;;;;;;;;;;5051469;28;20239;-74
2023/04/12 00:54:31;;;;;;;3.87;1.90;;;;;;;;;;5052174;28;20174;-77
2023/04/12 00:56:59;;;;;;;4.37;2.03;;;;;;;;;;5053111;28;20911;-77
2023/04/12 00:59:25;;;;;;;3.87;1.90;;;;;;;;;;5051992;28;20182;-77
2023/04/12 01:01:52;;;;;;;5.63;2.50;;;;;;;;;;5052965;28;20587;-77
2023/04/12 01:04:21;;;;;;;6.97;2.50;;;;;;;;;;5051508;28;20182;-77
2023/04/12 01:06:47;;;;;;;5.87;1.90;;;;;;;;;;5053065;28;20237;-77
2023/04/12 01:09:23;;;;;;;3.63;1.70;;;;;;;;;;5035153;28;20255;-77
2023/04/12 01:12:01;;;;;;;4.97;1.73;;;;;;;;;;5051661;28;20181;-77
2023/04/12 01:14:32;;;;;;;5.30;2.37;;;;;;;;;;5051620;28;20532;-77
2023/04/12 01:17:01;;;;;;;7.90;2.40;;;;;;;;;;5035086;28;20612;-76
2023/04/12 01:19:33;;;;;;;5.03;2.40;;;;;;;;;;5035452;28;20186;-76
2023/04/12 01:22:00;;;;;;;5.70;2.10;;;;;;;;;;5041419;28;20183;-76
2023/04/12 01:24:34;;;;;;;6.47;2.50;;;;;;;;;;5051172;28;20280;-76
2023/04/12 01:27:02;;;;;;;3.60;2.03;;;;;;;;;;5034689;28;20244;-77
2023/04/12 01:29:29;;;;;;;5.73;2.30;;;;;;;;;;5051397;28;20182;-76
2023/04/12 01:32:00;;;;;;;5.53;2.40;;;;;;;;;;5055292;28;20182;-76
2023/04/12 01:34:28;;;;;;;5.20;2.27;;;;;;;;;;5064559;28;20236;-76
2023/04/12 01:36:55;;;;;;;4.80;2.30;;;;;;;;;;5017874;28;20190;-77
2023/04/12 01:39:21;;;;;;;7.37;2.37;;;;;;;;;;5042836;28;20178;-77
2023/04/12 01:41:49;;;;;;;9.20;2.73;;;;;;;;;;5051013;28;20182;-77
2023/04/12 01:44:15;;;;;;;8.53;2.73;;;;;;;;;;5055617;28;20257;-76
2023/04/12 01:46:43;;;;;;;4.20;2.67;;;;;;;;;;5051722;28;20786;-77
2023/04/12 01:49:11;;;;;;;4.03;2.30;;;;;;;;;;5051377;28;20191;-77
2023/04/12 01:52:00;;;;;;;4.90;2.40;;;;;;;;;;5034348;28;20695;-77
2023/04/12 01:54:30;;;;;;;5.17;2.57;;;;;;;;;;5051938;28;20181;-77
2023/04/12 01:56:59;;;;;;;4.87;2.37;;;;;;;;;;5052510;28;20281;-75
2023/04/12 01:59:26;;;;;;;7.07;2.70;;;;;;;;;;5050868;28;20722;-76
2023/04/12 02:01:52;;;;;;;7.00;2.60;;;;;;;;;;5050183;28;20182;-77
2023/04/12 02:04:19;;;;;;;5.67;2.83;;;;;;;;;;5050083;28;20182;-76
2023/04/12 02:06:46;;;;;;;4.83;2.77;;;;;;;;;;5050535;28;20212;-76
2023/04/12 02:09:12;;;;;;;6.17;2.97;;;;;;;;;;5050698;28;20281;-76
2023/04/12 02:11:38;;;;;;;6.47;2.70;;;;;;;;;;5050606;28;20251;-76
2023/04/12 02:14:04;;;;;;;4.37;2.40;;;;;;;;;;5051340;28;20614;-77
2023/04/12 02:16:31;;;;;;;5.87;2.70;;;;;;;;;;5051863;28;20174;-76
2023/04/12 02:18:57;;;;;;;4.57;2.30;;;;;;;;;;5051847;28;20178;-76
2023/04/12 02:21:26;;;;;;;6.10;2.90;;;;;;;;;;5050367;28;20190;-76
2023/04/12 02:23:53;;;;;;;6.43;2.43;;;;;;;;;;5065852;28;20202;-76
2023/04/12 02:26:19;;;;;;;5.70;2.67;;;;;;;;;;5050418;28;20206;-76
2023/04/12 02:28:46;;;;;;;4.70;2.73;;;;;;;;;;5049049;28;20209;-76
2023/04/12 02:31:15;;;;;;;4.43;2.60;;;;;;;;;;5033920;28;20191;-76
2023/04/12 02:33:43;;;;;;;5.13;2.63;;;;;;;;;;5033550;28;20198;-76
2023/04/12 02:36:10;;;;;;;7.47;2.63;;;;;;;;;;5048495;28;20582;-77
2023/04/12 02:38:36;;;;;;;7.00;2.43;;;;;;;;;;5038253;28;20270;-76
2023/04/12 02:41:05;;;;;;;4.67;2.47;;;;;;;;;;5029877;28;20659;-77
2023/04/12 02:43:33;;;;;;;6.57;2.47;;;;;;;;;;5041255;28;20289;-76
2023/04/12 02:46:03;;;;;;;4.83;2.40;;;;;;;;;;5033359;28;20182;-76
2023/04/12 02:48:36;;;;;;;5.83;2.33;;;;;;;;;;5066391;28;20209;-76
2023/04/12 02:51:02;;;;;;;5.53;2.60;;;;;;;;;;5049757;28;20671;-76
2023/04/12 02:53:31;;;;;;;4.13;2.17;;;;;;;;;;5040839;28;20209;-76
2023/04/12 02:56:11;;;;;;;4.13;2.50;;;;;;;;;;5054233;28;20270;-76
2023/04/12 02:58:37;;;;;;;6.03;2.30;;;;;;;;;;5033633;28;20259;-76
2023/04/12 03:01:06;;;;;;;5.30;2.73;;;;;;;;;;5049543;28;20351;-76
2023/04/12 03:03:37;;;;;;;4.07;2.00;;;;;;;;;;5032827;28;20198;-76
2023/04/12 03:06:18;;;;;;;3.80;2.10;;;;;;;;;;5049801;28;20198;-76
2023/04/12 03:08:44;;;;;;;4.67;2.17;;;;;;;;;;5051019;28;20220;-76
2023/04/12 03:11:10;;;;;;;3.40;1.90;;;;;;;;;;5049506;28;20260;-76
2023/04/12 03:13:36;;;;;;;3.03;1.80;;;;;;;;;;5041528;28;20195;-76
2023/04/12 03:16:20;;;;;;;3.50;2.00;;;;;;;;;;5045315;28;20288;-76
2023/04/12 03:18:47;;;;;;;4.83;1.93;;;;;;;;;;5049636;28;20213;-76
2023/04/12 03:21:13;;;;;;;3.83;2.00;;;;;;;;;;5064477;28;20196;-76
2023/04/12 03:23:41;;;;;;;2.80;1.70;;;;;;;;;;5045324;28;20279;-76
2023/04/12 03:26:19;;;;;;;2.70;1.77;;;;;;;;;;5054929;28;20178;-76
2023/04/12 03:29:00;;;;;;;3.00;1.80;;;;;;;;;;5064241;28;20173;-75
2023/04/12 03:31:28;;;;;;;3.47;1.80;;;;;;;;;;5060638;28;20169;-76
2023/04/12 03:33:57;;;;;;;5.13;1.90;;;;;;;;;;5048495;28;20217;-76
2023/04/12 03:36:25;;;;;;;3.27;1.77;;;;;;;;;;5052267;28;20182;-76
2023/04/12 03:38:56;;;;;;;3.03;1.87;;;;;;;;;;5041157;28;20266;-76
2023/04/12 03:41:23;;;;;;;2.73;1.90;;;;;;;;;;5047819;28;20215;-76
2023/04/12 03:43:49;;;;;;;2.43;1.80;;;;;;;;;;5049064;28;20255;-76
2023/04/12 03:46:17;;;;;;;3.03;1.93;;;;;;;;;;5048626;28;20185;-76
2023/04/12 03:48:49;;;;;;;4.87;2.10;;;;;;;;;;5048366;28;20918;-76
2023/04/12 03:51:15;;;;;;;4.03;2.00;;;;;;;;;;5013659;28;20240;-76
2023/04/12 03:53:45;;;;;;;4.77;1.93;;;;;;;;;;5030012;28;20205;-76
2023/04/12 03:56:14;;;;;;;4.47;1.97;;;;;;;;;;5046773;28;20185;-76
2023/04/12 03:58:44;;;;;;;2.37;1.97;;;;;;;;;;5047784;28;20204;-76
2023/04/12 04:01:12;;;;;;;2.53;1.60;;;;;;;;;;5041144;28;20178;-76
2023/04/12 04:03:39;;;;;;;4.27;2.20;;;;;;;;;;5029309;28;20209;-75
2023/04/12 04:06:17;;;;;;;3.50;1.57;;;;;;;;;;5046408;28;20185;-76
2023/04/12 04:08:43;;;;;;;2.73;1.70;;;;;;;;;;5047396;28;20584;-75
2023/04/12 04:11:11;;;;;;;3.90;1.80;;;;;;;;;;5046492;28;20656;-76
2023/04/12 04:13:41;;;;;;;3.40;1.53;;;;;;;;;;5045890;28;20202;-76
2023/04/12 04:16:09;;;;;;;2.93;1.60;;;;;;;;;;5035623;28;20170;-76
2023/04/12 04:18:36;;;;;;;2.13;1.53;;;;;;;;;;5045981;28;20650;-76
2023/04/12 04:21:06;;;;;;;2.10;1.50;;;;;;;;;;5030984;28;20347;-76
2023/04/12 04:23:39;;;;;;;3.33;1.53;;;;;;;;;;5045952;28;20240;-76
2023/04/12 04:26:10;;;;;;;2.23;1.50;;;;;;;;;;5032325;28;20245;-76
2023/04/12 04:28:50;;;;;;;3.27;1.83;;;;;;;;;;5051162;28;20612;-76
2023/04/12 04:31:25;;;;;;;2.30;1.70;;;;;;;;;;5032883;28;20658;-76
2023/04/12 04:33:51;;;;;;;2.17;1.57;;;;;;;;;;5056576;28;20201;-76
2023/04/12 04:36:21;;;;;;;1.70;1.50;;;;;;;;;;5049755;28;20182;-77
2023/04/12 04:38:51;;;;;;;3.37;1.73;;;;;;;;;;5018239;28;20224;-76
2023/04/12 04:41:38;;;;;;;2.00;1.60;;;;;;;;;;5043936;28;20488;-76
2023/04/12 04:44:12;;;;;;;2.77;1.60;;;;;;;;;;5042920;28;20201;-76
2023/04/12 04:46:47;;;;;;;1.95;1.50;;;;;;;;;;5045274;28;20443;-76
2023/04/12 04:49:13;;;;;;;2.17;1.57;;;;;;;;;;5052360;28;20216;-76
2023/04/12 04:51:39;;;;;;;4.47;1.50;;;;;;;;;;5035285;28;20186;-76
2023/04/12 04:54:07;;;;;;;2.60;1.50;;;;;;;;;;5057771;28;20201;-76
2023/04/12 04:56:34;;;;;;;2.87;1.40;;;;;;;;;;5048525;28;20197;-76
2023/04/12 04:59:01;;;;;;;2.70;1.53;;;;;;;;;;5049708;28;20693;-76
2023/04/12 05:01:28;;;;;;;2.70;1.40;;;;;;;;;;5031240;28;20260;-76
2023/04/12 05:03:56;;;;;;;2.70;1.47;;;;;;;;;;5048151;28;20704;-76
2023/04/12 05:06:26;;;;;;;1.80;1.40;;;;;;;;;;5034301;28;20198;-75
2023/04/12 05:08:52;;;;;;;2.33;1.50;;;;;;;;;;5051497;28;20213;-76
2023/04/12 05:11:20;;;;;;;2.63;1.40;;;;;;;;;;5035744;28;20280;-76
2023/04/12 05:13:46;;;;;;;1.63;1.10;;;;;;;;;;5051612;28;20201;-76
2023/04/12 05:16:13;;;;;;;2.00;1.50;;;;;;;;;;5052315;28;20210;-76
2023/04/12 05:18:39;;;;;;;2.70;1.20;;;;;;;;;;5052325;28;20182;-76
2023/04/12 05:21:06;;;;;;;2.70;1.80;;;;;;;;;;5052417;28;20190;-76
2023/04/12 05:23:36;;;;;;;1.67;1.20;;;;;;;;;;5052769;28;20193;-76
2023/04/12 05:26:03;;;;;;;3.80;1.60;;;;;;;;;;5036195;28;20189;-76
2023/04/12 05:28:30;;;;;;;2.17;1.40;;;;;;;;;;5019441;28;20214;-75
2023/04/12 05:30:57;;;;;;;2.47;1.40;;;;;;;;;;5051697;28;20238;-76
2023/04/12 05:33:33;;;;;;;2.20;1.40;;;;;;;;;;5052255;28;20209;-76
2023/04/12 05:36:00;;;;;;;2.60;1.20;;;;;;;;;;5051649;28;20182;-75
2023/04/12 05:38:27;;;;;;;1.63;1.30;;;;;;;;;;5053111;28;20672;-75
2023/04/12 05:40:57;;;;;;;2.57;1.40;;;;;;;;;;5052163;28;20182;-75
2023/04/12 05:43:23;;;;;;;3.07;1.70;;;;;;;;;;5052606;28;20206;-74
2023/04/12 05:45:52;;;;;;;3.50;1.80;;;;;;;;;;5053052;28;20185;-74
2023/04/12 05:48:21;;;;;;;3.30;1.90;;;;;;;;;;5051818;28;20217;-74
2023/04/12 05:50:51;;;;;;;9.10;6.40;;;;;;;;;;5035589;28;20182;-74
2023/04/12 05:53:18;;;;;;;4.27;3.20;;;;;;;;;;5052374;28;20209;-74
2023/04/12 05:55:44;;;;;;;4.90;2.80;;;;;;;;;;5051773;28;20174;-74
2023/04/12 05:58:11;;;;;;;2.80;1.90;;;;;;;;;;5051687;28;20178;-74
2023/04/12 06:00:40;;;;;;;3.23;2.20;;;;;;;;;;5051700;28;20180;-74
2023/04/12 06:03:08;;;;;;;3.67;2.03;;;;;;;;;;5052499;28;20297;-75
2023/04/12 06:05:34;;;;;;;2.70;2.20;;;;;;;;;;5052711;28;20209;-75
2023/04/12 06:08:00;;;;;;;3.63;2.70;;;;;;;;;;5051504;28;20281;-74
2023/04/12 06:10:26;;;;;;;2.97;1.90;;;;;;;;;;5052680;28;20729;-74
2023/04/12 06:12:53;;;;;;;3.20;1.80;;;;;;;;;;5050987;28;20216;-74
2023/04/12 06:15:19;;;;;;;2.47;1.93;;;;;;;;;;5052121;28;20196;-76
2023/04/12 06:17:52;;;;;;;3.73;2.73;;;;;;;;;;5051281;28;20193;-75
2023/04/12 06:20:18;;;;;;;4.20;2.67;;;;;;;;;;5051509;28;20174;-77
2023/04/12 06:22:45;;;;;;;3.00;2.13;;;;;;;;;;5040100;28;20256;-80
2023/04/12 06:25:15;;;;;;;3.50;2.10;;;;;;;;;;5031134;28;20561;-75
2023/04/12 06:27:42;;;;;;;3.30;2.17;;;;;;;;;;5049022;28;20217;-74
2023/04/12 06:30:09;;;;;;;2.27;1.80;;;;;;;;;;5067334;28;20189;-74
2023/04/12 06:32:37;;;;;;;2.80;1.97;;;;;;;;;;5066739;28;20236;-74
2023/04/12 06:35:04;;;;;;;3.93;2.63;;;;;;;;;;5065393;28;20200;-77
2023/04/12 06:37:31;;;;;;;3.13;2.10;;;;;;;;;;5066589;28;20530;-76
2023/04/12 06:39:57;;;;;;;2.13;1.63;;;;;;;;;;5050535;28;20174;-76
2023/04/12 06:42:24;;;;;;;2.93;1.80;;;;;;;;;;5041326;28;20212;-76
2023/04/12 06:44:50;;;;;;;1.90;1.60;;;;;;;;;;5051572;28;20178;-76
2023/04/12 06:47:16;;;;;;;4.30;2.10;;;;;;;;;;5050535;28;20209;-76
2023/04/12 06:49:42;;;;;;;2.43;1.67;;;;;;;;;;5051803;28;20174;-75
2023/04/12 06:52:08;;;;;;;3.00;1.90;;;;;;;;;;5050789;28;20236;-76
2023/04/12 06:54:38;;;;;;;2.57;2.10;;;;;;;;;;5059443;28;20235;-76
2023/04/12 06:57:08;;;;;;;4.03;2.40;;;;;;;;;;5046949;28;20272;-76
2023/04/12 06:59:35;;;;;;;3.00;2.07;;;;;;;;;;5050876;28;20174;-76
2023/04/12 07:02:01;;;;;;;3.17;2.10;;;;;;;;;;5049858;28;20213;-76
2023/04/12 07:04:27;;;;;;;3.27;2.40;;;;;;;;;;5045781;28;20172;-76
2023/04/12 07:06:53;;;;;;;3.10;1.90;;;;;;;;;;5049079;28;20197;-76
2023/04/12 07:09:19;;;;;;;3.20;1.80;;;;;;;;;;5050900;28;20174;-76
2023/04/12 07:11:47;;;;;;;3.33;1.80;;;;;;;;;;5051335;28;20209;-76
2023/04/12 07:14:13;;;;;;;2.73;2.10;;;;;;;;;;5050530;28;20197;-75
2023/04/12 07:16:39;;;;;;;3.70;2.00;;;;;;;;;;5050237;28;20644;-76
2023/04/12 07:19:05;;;;;;;3.80;2.23;;;;;;;;;;5047455;28;20186;-76
2023/04/12 07:21:31;;;;;;;2.73;1.90;;;;;;;;;;5049031;28;20178;-76
2023/04/12 07:23:57;;;;;;;2.90;2.03;;;;;;;;;;5049286;28;20567;-76
2023/04/12 07:26:24;;;;;;;5.43;2.00;;;;;;;;;;5049945;28;20692;-76
2023/04/12 07:28:51;;;;;;;4.53;2.20;;;;;;;;;;5055887;28;20208;-76
2023/04/12 07:31:17;;;;;;;3.47;2.50;;;;;;;;;;5047432;28;21400;-76
2023/04/12 07:33:43;;;;;;;2.63;2.00;;;;;;;;;;5050172;28;20193;-76
2023/04/12 07:36:10;;;;;;;6.27;3.20;;;;;;;;;;5049429;28;20178;-76
2023/04/12 07:38:36;;;;;;;4.83;2.40;;;;;;;;;;5050413;28;20182;-76
2023/04/12 07:41:02;;;;;;;3.57;2.30;;;;;;;;;;5049707;28;20282;-76
2023/04/12 07:43:29;;;;;;;3.47;2.20;;;;;;;;;;5049516;28;20740;-77
2023/04/12 07:45:55;;;;;;;4.93;2.40;;;;;;;;;;5048758;28;20228;-76
2023/04/12 07:48:21;;;;;;;4.33;2.60;;;;;;;;;;5050276;28;20197;-76
2023/04/12 07:50:47;;;;;;;4.10;1.93;;;;;;;;;;5050552;28;20233;-76
2023/04/12 07:53:18;;;;;;;3.87;2.20;;;;;;;;;;5049600;28;20209;-76
2023/04/12 07:55:45;;;;;;;4.03;2.10;;;;;;;;;;5046718;28;20193;-76
2023/04/12 07:58:11;;;;;;;2.57;1.90;;;;;;;;;;5049122;28;20185;-76
2023/04/12 08:00:37;;;;;;;4.63;2.27;;;;;;;;;;5052203;28;20177;-76
2023/04/12 08:03:03;;;;;;;2.67;1.90;;;;;;;;;;5053304;28;20214;-76
2023/04/12 08:05:29;;;;;;;5.17;2.13;;;;;;;;;;5052986;28;20189;-76
2023/04/12 08:07:55;;;;;;;6.17;2.20;;;;;;;;;;5054393;28;20197;-76
2023/04/12 08:10:21;;;;;;;2.77;2.00;;;;;;;;;;5053700;28;20181;-76
2023/04/12 08:12:48;;;;;;;3.20;1.90;;;;;;;;;;5053923;28;20190;-76
2023/04/12 08:15:14;;;;;;;4.43;2.03;;;;;;;;;;5052598;28;20181;-75
2023/04/12 08:17:42;;;;;;;4.03;2.00;;;;;;;;;;5052499;28;20190;-74
2023/04/12 08:20:09;;;;;;;2.63;1.90;;;;;;;;;;5051670;28;20178;-78
2023/04/12 08:22:35;;;;;;;7.37;2.57;;;;;;;;;;5054018;28;20224;-75
2023/04/12 08:25:01;;;;;;;3.50;1.97;;;;;;;;;;5054231;28;20177;-77
2023/04/12 08:27:29;;;;;;;3.90;2.30;;;;;;;;;;5054284;28;20517;-77
2023/04/12 08:29:55;;;;;;;4.23;2.20;;;;;;;;;;5054191;28;20232;-77
2023/04/12 08:32:21;;;;;;;2.77;2.17;;;;;;;;;;5056508;28;20216;-77
2023/04/12 08:34:47;;;;;;;4.80;2.33;;;;;;;;;;5059696;28;20190;-77
2023/04/12 08:37:13;;;;;;;4.43;2.60;;;;;;;;;;5036645;28;20658;-77
2023/04/12 08:39:40;;;;;;;3.03;2.20;;;;;;;;;;5055411;28;20181;-77
2023/04/12 08:42:06;;;;;;;2.20;1.90;;;;;;;;;;5052168;28;20197;-77
2023/04/12 08:44:37;;;;;;;3.20;2.10;;;;;;;;;;5054127;28;20185;-77
2023/04/12 08:47:04;;;;;;;5.30;2.30;;;;;;;;;;5053349;28;20198;-77
2023/04/12 08:49:31;;;;;;;3.90;2.10;;;;;;;;;;5052577;28;20170;-77
2023/04/12 08:51:59;;;;;;;4.60;2.10;;;;;;;;;;5053519;28;20189;-77
2023/04/12 08:54:26;;;;;;;4.87;2.50;;;;;;;;;;5053247;28;20311;-77
2023/04/12 08:56:56;;;;;;;4.33;2.10;;;;;;;;;;5052311;28;20549;-77
2023/04/12 08:59:24;;;;;;;3.97;2.20;;;;;;;;;;5053414;28;20177;-77
2023/04/12 09:01:50;;;;;;;4.60;2.20;;;;;;;;;;5052539;28;20252;-77
2023/04/12 09:04:16;;;;;;;4.23;2.17;;;;;;;;;;5053855;28;20669;-77
2023/04/12 09:06:42;;;;;;;4.17;2.30;;;;;;;;;;5052479;28;20185;-76
2023/04/12 09:09:09;;;;;;;3.80;2.27;;;;;;;;;;5052741;28;20182;-76
2023/04/12 09:11:35;;;;;;;3.83;2.10;;;;;;;;;;5052437;28;20239;-76
2023/04/12 09:14:01;;;;;;;5.10;2.10;;;;;;;;;;5041773;28;20233;-76
2023/04/12 09:16:34;;;;;;;6.03;2.60;;;;;;;;;;5053370;28;20271;-76
2023/04/12 09:19:02;;;;;;;3.60;2.03;;;;;;;;;;5053288;28;20202;-76
2023/04/12 09:21:28;;;;;;;6.20;2.30;;;;;;;;;;5053403;28;20185;-76
2023/04/12 09:24:08;;;;;;;3.87;2.37;;;;;;;;;;5053509;28;20244;-76
2023/04/12 09:26:34;;;;;;;6.30;2.73;;;;;;;;;;5053087;28;20668;-76
2023/04/12 09:29:01;;;;;;;5.07;2.37;;;;;;;;;;5052374;28;20208;-76
2023/04/12 09:31:27;;;;;;;4.53;2.40;;;;;;;;;;5053532;28;20170;-76
2023/04/12 09:34:05;;;;;;;4.73;2.30;;;;;;;;;;5052725;28;20205;-76
2023/04/12 09:36:40;;;;;;;4.60;2.30;;;;;;;;;;5051927;28;20212;-76
2023/04/12 09:39:07;;;;;;;8.80;2.70;;;;;;;;;;5039192;28;20189;-77
2023/04/12 09:41:33;;;;;;;4.60;2.30;;;;;;;;;;5050406;28;20184;-76
2023/04/12 09:44:00;;;;;;;5.97;2.57;;;;;;;;;;5061005;28;20204;-76
2023/04/12 09:46:27;;;;;;;5.97;2.60;;;;;;;;;;5073527;28;20177;-78
2023/04/12 09:48:54;;;;;;;4.53;2.30;;;;;;;;;;5052228;28;20237;-77
2023/04/12 09:51:27;;;;;;;4.77;2.37;;;;;;;;;;5052613;28;20215;-76
2023/04/12 09:53:55;;;;;;;4.10;2.23;;;;;;;;;;5050763;28;20228;-78
2023/04/12 09:56:22;;;;;;;5.03;2.30;;;;;;;;;;5052515;28;20184;-76
2023/04/12 09:58:52;;;;;;;5.07;2.73;;;;;;;;;;5052859;28;20230;-76
2023/04/12 10:01:19;;;;;;;5.13;2.70;;;;;;;;;;5041587;28;20189;-76
2023/04/12 10:03:45;;;;;;;5.37;2.50;;;;;;;;;;5053272;28;20259;-76
2023/04/12 10:06:11;;;;;;;6.03;2.60;;;;;;;;;;5053322;28;20186;-76
2023/04/12 10:08:37;;;;;;;5.97;3.30;;;;;;;;;;5053529;28;20676;-77
2023/04/12 10:11:04;;;;;;;3.60;2.30;;;;;;;;;;5047723;28;20227;-77
2023/04/12 10:13:32;;;;;;;4.83;2.60;;;;;;;;;;5051348;28;20677;-76
2023/04/12 10:15:59;;;;;;;5.07;2.53;;;;;;;;;;5042903;28;20215;-77
2023/04/12 10:18:26;;;;;;;4.27;2.80;;;;;;;;;;5046749;28;20189;-78
2023/04/12 10:20:52;;;;;;;4.70;2.43;;;;;;;;;;5052401;28;20520;-79
2023/04/12 10:23:19;;;;;;;3.27;2.43;;;;;;;;;;5049685;28;20240;-77
2023/04/12 10:25:47;;;;;;;5.47;2.90;;;;;;;;;;5050304;28;20192;-75
2023/04/12 10:28:18;;;;;;;5.30;2.97;;;;;;;;;;5051686;28;20224;-76
2023/04/12 10:30:46;;;;;;;4.73;2.90;;;;;;;;;;5052460;28;20267;-74
2023/04/12 10:33:13;;;;;;;4.87;2.90;;;;;;;;;;5051996;28;20245;-76
2023/04/12 10:35:49;;;;;;;4.80;3.10;;;;;;;;;;5052052;28;20189;-77
2023/04/12 10:38:16;;;;;;;5.07;2.67;;;;;;;;;;5051430;28;20227;-75
2023/04/12 10:41:01;;;;;;;5.40;3.00;;;;;;;;;;5052537;28;20217;-76
2023/04/12 10:43:27;;;;;;;6.17;3.03;;;;;;;;;;5036557;28;20206;-76
2023/04/12 10:45:54;;;;;;;4.23;2.60;;;;;;;;;;5051212;28;20189;-76
2023/04/12 10:48:32;;;;;;;6.43;3.00;;;;;;;;;;5037838;28;20303;-76
2023/04/12 10:51:22;;;;;;;4.50;2.63;;;;;;;;;;5065210;28;20538;-76
2023/04/12 10:53:49;;;;;;;4.10;2.87;;;;;;;;;;5051143;28;20233;-76
2023/04/12 10:56:33;;;;;;;6.80;3.00;;;;;;;;;;5050368;28;20234;-76
2023/04/12 10:58:59;;;;;;;5.33;2.87;;;;;;;;;;5050473;28;20181;-76
2023/04/12 11:01:28;;;;;;;4.57;2.80;;;;;;;;;;5062382;28;20638;-76
2023/04/12 11:04:06;;;;;;;4.63;2.70;;;;;;;;;;5050319;28;20297;-76
2023/04/12 11:06:51;;;;;;;6.63;3.07;;;;;;;;;;5031821;28;20665;-76
2023/04/12 11:09:36;;;;;;;7.10;2.97;;;;;;;;;;5046172;28;20215;-76
2023/04/12 11:12:05;;;;;;;5.60;3.00;;;;;;;;;;5051865;28;20182;-76
2023/04/12 11:14:37;;;;;;;6.17;3.63;;;;;;;;;;5051811;28;20754;-77
2023/04/12 11:17:06;;;;;;;7.00;3.10;;;;;;;;;;5051904;28;20185;-77
2023/04/12 11:19:33;;;;;;;5.53;3.00;;;;;;;;;;5049485;28;20210;-78
2023/04/12 11:22:01;;;;;;;5.03;2.90;;;;;;;;;;5051002;28;20193;-79
2023/04/12 11:24:27;;;;;;;6.90;3.17;;;;;;;;;;5051566;28;20200;-79
2023/04/12 11:26:53;;;;;;;5.90;3.30;;;;;;;;;;5030769;28;20199;-79
2023/04/12 11:29:23;;;;;;;6.67;2.93;;;;;;;;;;5049826;28;20553;-78
2023/04/12 11:31:49;;;;;;;4.70;2.80;;;;;;;;;;5050564;28;20193;-79
2023/04/12 11:34:19;;;;;;;6.00;3.20;;;;;;;;;;5048387;28;20203;-79
2023/04/12 11:36:46;;;;;;;6.63;3.10;;;;;;;;;;5050109;28;20240;-78
2023/04/12 11:39:12;;;;;;;6.20;3.13;;;;;;;;;;5049471;28;20217;-78
2023/04/12 11:41:45;;;;;;;5.60;3.27;;;;;;;;;;5049918;28;20679;-79
2023/04/12 11:44:12;;;;;;;8.87;3.40;;;;;;;;;;5049875;28;20653;-78
2023/04/12 11:46:39;;;;;;;6.97;3.03;;;;;;;;;;5049990;28;20190;-78
2023/04/12 11:49:05;;;;;;;3.83;2.67;;;;;;;;;;5045933;28;20213;-78
2023/04/12 11:51:32;;;;;;;5.23;3.10;;;;;;;;;;5050032;28;20170;-79
2023/04/12 11:53:58;;;;;;;5.37;3.37;;;;;;;;;;5050691;28;20277;-79
2023/04/12 11:56:26;;;;;;;4.83;3.33;;;;;;;;;;5049668;28;20186;-78
2023/04/12 11:58:52;;;;;;;5.13;3.10;;;;;;;;;;5052022;28;20618;-79
2023/04/12 12:01:19;;;;;;;6.47;3.10;;;;;;;;;;5041768;28;20610;-79
2023/04/12 12:03:46;;;;;;;6.50;3.20;;;;;;;;;;5030573;28;20201;-79
2023/04/12 12:06:13;;;;;;;6.80;3.33;;;;;;;;;;5036358;28;20186;-79
2023/04/12 12:08:39;;;;;;;7.17;3.20;;;;;;;;;;5051024;28;20304;-79
2023/04/12 12:11:06;;;;;;;4.77;2.70;;;;;;;;;;5051392;28;20174;-78
2023/04/12 12:13:49;;;;;;;7.07;3.83;;;;;;;;;;5049403;28;20248;-79
2023/04/12 12:16:16;;;;;;;4.63;2.90;;;;;;;;;;5049435;28;20182;-79
2023/04/12 12:18:43;;;;;;;4.70;3.13;;;;;;;;;;5050769;28;20182;-80
2023/04/12 12:21:09;;;;;;;4.10;2.60;;;;;;;;;;5050746;28;20231;-79
2023/04/12 12:23:36;;;;;;;5.63;2.90;;;;;;;;;;5050241;28;20201;-78
2023/04/12 12:26:04;;;;;;;4.57;2.70;;;;;;;;;;5048518;28;20503;-79
2023/04/12 12:28:30;;;;;;;5.50;2.70;;;;;;;;;;5041005;28;20213;-79
2023/04/12 12:30:56;;;;;;;4.67;2.80;;;;;;;;;;5050578;28;20738;-79
2023/04/12 12:33:23;;;;;;;3.93;2.77;;;;;;;;;;5048987;28;20198;-80
2023/04/12 12:35:58;;;;;;;3.73;2.50;;;;;;;;;;5050498;28;20186;-79
2023/04/12 12:38:24;;;;;;;5.17;2.87;;;;;;;;;;5050283;28;20276;-79
2023/04/12 12:40:51;;;;;;;4.63;2.83;;;;;;;;;;5051021;28;20213;-79
2023/04/12 12:43:18;;;;;;;5.70;2.67;;;;;;;;;;5048705;28;20692;-79
2023/04/12 12:45:45;;;;;;;5.83;3.10;;;;;;;;;;5049997;28;20603;-79
2023/04/12 12:48:11;;;;;;;5.03;2.50;;;;;;;;;;5052938;28;20202;-76
2023/04/12 12:50:38;;;;;;;4.40;2.63;;;;;;;;;;5054714;28;20200;-78
2023/04/12 12:53:09;;;;;;;4.27;2.97;;;;;;;;;;5053745;28;20556;-79
2023/04/12 12:55:35;;;;;;;5.00;2.50;;;;;;;;;;5053532;28;20186;-79
2023/04/12 12:58:01;;;;;;;6.27;2.80;;;;;;;;;;5054814;28;20174;-82
2023/04/12 13:00:28;;;;;;;4.57;2.90;;;;;;;;;;5055234;28;20245;-78
2023/04/12 13:02:54;;;;;;;6.97;3.10;;;;;;;;;;5050841;28;20206;-78
2023/04/12 13:05:22;;;;;;;5.97;3.47;;;;;;;;;;5038635;28;20182;-78
2023/04/12 13:07:48;;;;;;;4.83;2.80;;;;;;;;;;5051536;22;20262;-75
2023/04/12 13:10:14;;;;;;;4.00;2.60;;;;;;;;;;5027051;28;20191;-75
2023/04/12 13:12:40;;;;;;;4.73;3.27;;;;;;;;;;5032115;28;20749;-75
2023/04/12 13:15:07;;;;;;;5.97;3.20;;;;;;;;;;5033550;28;20393;-75
2023/04/12 13:17:33;;;;;;;4.37;2.80;;;;;;;;;;5033101;28;20202;-75
2023/04/12 13:19:59;;;;;;;5.97;2.80;;;;;;;;;;5033305;28;20189;-75
2023/04/12 13:22:26;;;;;;;5.83;3.10;;;;;;;;;;5032777;28;20175;-75
2023/04/12 13:24:52;;;;;;;5.83;3.27;;;;;;;;;;5033337;28;20206;-74
2023/04/12 13:27:18;;;;;;;4.80;2.77;;;;;;;;;;5032637;28;20205;-75
2023/04/12 13:29:44;;;;;;;6.93;4.17;;;;;;;;;;5034771;28;20187;-74
2023/04/12 13:32:12;;;;;;;5.30;3.07;;;;;;;;;;5024587;28;20179;-74
2023/04/12 13:34:38;;;;;;;4.53;3.00;;;;;;;;;;5031852;28;20186;-74
2023/04/12 13:37:04;;;;;;;5.97;2.63;;;;;;;;;;5029958;28;20244;-74
2023/04/12 13:39:31;;;;;;;5.10;2.50;;;;;;;;;;5013573;28;20737;-74
2023/04/12 13:41:57;;;;;;;4.57;2.50;;;;;;;;;;5028857;28;20258;-74
2023/04/12 13:44:26;;;;;;;5.47;2.50;;;;;;;;;;5013267;28;20748;-74
2023/04/12 13:46:52;;;;;;;3.77;2.57;;;;;;;;;;5029743;28;20199;-74
2023/04/12 13:49:18;;;;;;;5.83;2.90;;;;;;;;;;5030432;28;20637;-74
2023/04/12 13:51:44;;;;;;;6.53;3.27;;;;;;;;;;5030012;28;20239;-75
2023/04/12 13:54:11;;;;;;;5.73;2.73;;;;;;;;;;5029162;28;20251;-76
2023/04/12 13:56:37;;;;;;;5.43;2.73;;;;;;;;;;5031653;28;20638;-77
2023/04/12 13:59:03;;;;;;;4.37;2.80;;;;;;;;;;5029247;28;20201;-75
2023/04/12 14:01:29;;;;;;;7.00;3.30;;;;;;;;;;5031866;28;20240;-74
2023/04/12 14:03:55;;;;;;;4.90;2.93;;;;;;;;;;5028188;28;20285;-77
2023/04/12 14:06:22;;;;;;;4.37;3.03;;;;;;;;;;5012817;28;20268;-75
2023/04/12 14:08:48;;;;;;;4.50;2.50;;;;;;;;;;5029732;28;20616;-75
2023/04/12 14:11:14;;;;;;;5.07;2.83;;;;;;;;;;5030196;28;20198;-74
2023/04/12 14:13:40;;;;;;;3.23;2.30;;;;;;;;;;5029223;28;20183;-74
2023/04/12 14:16:07;;;;;;;4.30;2.90;;;;;;;;;;5027753;28;20537;-74
2023/04/12 14:18:33;;;;;;;4.00;2.07;;;;;;;;;;5026939;28;20248;-74
2023/04/12 14:20:59;;;;;;;3.10;2.07;;;;;;;;;;5030098;28;20175;-74
2023/04/12 14:23:26;;;;;;;3.83;2.20;;;;;;;;;;5028979;28;20252;-74
2023/04/12 14:25:52;;;;;;;4.47;2.40;;;;;;;;;;5029913;28;20193;-74
2023/04/12 14:28:20;;;;;;;5.00;2.87;;;;;;;;;;5028599;28;20880;-74
2023/04/12 14:30:49;;;;;;;2.80;2.20;;;;;;;;;;5029318;28;20649;-74
2023/04/12 14:33:16;;;;;;;3.47;2.13;;;;;;;;;;5028847;28;20559;-73
2023/04/12 14:35:42;;;;;;;2.50;2.10;;;;;;;;;;5028860;28;20188;-74
2023/04/12 14:38:08;;;;;;;6.13;5.43;;;;;;;;;;5030374;28;20199;-74
2023/04/12 14:40:34;;;;;;;4.80;2.87;;;;;;;;;;5029671;28;20179;-74
2023/04/12 14:43:00;;;;;;;3.27;2.20;;;;;;;;;;5029551;28;20608;-74
2023/04/12 14:45:27;;;;;;;3.73;2.13;;;;;;;;;;5027651;28;20179;-74
2023/04/12 14:47:53;;;;;;;3.47;2.10;;;;;;;;;;5029288;28;20218;-74